sensor_id;sensor_type;location;lat;lon;timestamp;P1;durP1;ratioP1;P2;durP2;ratioP2
9729;SDS011;4904;49.152;11.004;2024-01-10T00:00:14;29.93;;;11.53;;
9729;SDS011;4904;49.152;11.004;2024-01-10T00:02:41;18.47;;;10.67;;
9729;SDS011;4904;49.152;11.004;2024-01-10T00:05:08;16.67;;;9.53;;
9729;SDS011;4904;49.152;11.004;2024-01-10T00:07:35;16.07;;;9.80;;
9729;SDS011;4904;49.152;11.004;2024-01-10T00:10:04;16.80;;;10.43;;
9729;SDS011;4904;49.152;11.004;2024-01-10T00:12:31;18.00;;;9.53;;
9729;SDS011;4904;49.152;11.004;2024-01-10T00:15:02;14.83;;;9.47;;
9729;SDS011;4904;49.152;11.004;2024-01-10T00:17:30;15.80;;;9.50;;
9729;SDS011;4904;49.152;11.004;2024-01-10T00:19:57;17.60;;;9.40;;
9729;SDS011;4904;49.152;11.004;2024-01-10T00:22:24;14.57;;;9.50;;
9729;SDS011;4904;49.152;11.004;2024-01-10T00:24:51;15.70;;;10.57;;
9729;SDS011;4904;49.152;11.004;2024-01-10T00:27:19;18.60;;;11.27;;
9729;SDS011;4904;49.152;11.004;2024-01-10T00:29:47;15.83;;;10.00;;
9729;SDS011;4904;49.152;11.004;2024-01-10T00:32:13;18.80;;;10.23;;
9729;SDS011;4904;49.152;11.004;2024-01-10T00:34:40;17.67;;;10.43;;
9729;SDS011;4904;49.152;11.004;2024-01-10T00:37:07;17.47;;;10.90;;
9729;SDS011;4904;49.152;11.004;2024-01-10T00:39:34;18.23;;;10.87;;
9729;SDS011;4904;49.152;11.004;2024-01-10T00:42:01;15.90;;;9.87;;
9729;SDS011;4904;49.152;11.004;2024-01-10T00:44:29;17.33;;;10.37;;
9729;SDS011;4904;49.152;11.004;2024-01-10T00:46:56;17.57;;;10.97;;
9729;SDS011;4904;49.152;11.004;2024-01-10T00:49:23;16.30;;;10.00;;
9729;SDS011;4904;49.152;11.004;2024-01-10T00:51:50;17.60;;;10.77;;
9729;SDS011;4904;49.152;11.004;2024-01-10T00:54:16;15.37;;;10.07;;
9729;SDS011;4904;49.152;11.004;2024-01-10T00:56:43;19.17;;;10.93;;
9729;SDS011;4904;49.152;11.004;2024-01-10T00:59:10;14.73;;;10.40;;
9729;SDS011;4904;49.152;11.004;2024-01-10T01:01:38;17.20;;;10.33;;
9729;SDS011;4904;49.152;11.004;2024-01-10T01:04:05;18.20;;;10.03;;
9729;SDS011;4904;49.152;11.004;2024-01-10T01:06:32;17.73;;;10.53;;
9729;SDS011;4904;49.152;11.004;2024-01-10T01:08:59;16.03;;;10.07;;
9729;SDS011;4904;49.152;11.004;2024-01-10T01:11:26;17.73;;;11.43;;
9729;SDS011;4904;49.152;11.004;2024-01-10T01:13:53;22.23;;;10.70;;
9729;SDS011;4904;49.152;11.004;2024-01-10T01:16:20;16.80;;;10.40;;
9729;SDS011;4904;49.152;11.004;2024-01-10T01:18:48;18.17;;;10.77;;
9729;SDS011;4904;49.152;11.004;2024-01-10T01:21:15;17.63;;;9.97;;
9729;SDS011;4904;49.152;11.004;2024-01-10T01:23:42;18.00;;;10.70;;
9729;SDS011;4904;49.152;11.004;2024-01-10T01:26:09;16.93;;;10.40;;
9729;SDS011;4904;49.152;11.004;2024-01-10T01:28:37;19.60;;;11.23;;
9729;SDS011;4904;49.152;11.004;2024-01-10T01:31:04;16.43;;;9.63;;
9729;SDS011;4904;49.152;11.004;2024-01-10T01:33:31;19.27;;;10.63;;
9729;SDS011;4904;49.152;11.004;2024-01-10T01:36:00;17.03;;;10.27;;
9729;SDS011;4904;49.152;11.004;2024-01-10T01:38:26;15.23;;;10.00;;
9729;SDS011;4904;49.152;11.004;2024-01-10T01:40:53;15.57;;;10.17;;
9729;SDS011;4904;49.152;11.004;2024-01-10T01:43:21;17.23;;;9.80;;
9729;SDS011;4904;49.152;11.004;2024-01-10T01:45:49;15.73;;;10.10;;
9729;SDS011;4904;49.152;11.004;2024-01-10T01:48:17;16.77;;;10.03;;
9729;SDS011;4904;49.152;11.004;2024-01-10T01:50:45;16.00;;;10.13;;
9729;SDS011;4904;49.152;11.004;2024-01-10T01:53:14;17.60;;;10.43;;
9729;SDS011;4904;49.152;11.004;2024-01-10T01:55:42;15.87;;;9.90;;
9729;SDS011;4904;49.152;11.004;2024-01-10T01:58:10;15.97;;;10.17;;
9729;SDS011;4904;49.152;11.004;2024-01-10T02:00:37;15.43;;;10.03;;
9729;SDS011;4904;49.152;11.004;2024-01-10T02:03:05;15.93;;;9.33;;
9729;SDS011;4904;49.152;11.004;2024-01-10T02:05:32;16.70;;;9.90;;
9729;SDS011;4904;49.152;11.004;2024-01-10T02:07:59;17.20;;;9.50;;
9729;SDS011;4904;49.152;11.004;2024-01-10T02:10:27;17.83;;;10.10;;
9729;SDS011;4904;49.152;11.004;2024-01-10T02:12:54;14.67;;;9.40;;
9729;SDS011;4904;49.152;11.004;2024-01-10T02:15:21;17.43;;;10.00;;
9729;SDS011;4904;49.152;11.004;2024-01-10T02:17:48;16.03;;;9.37;;
9729;SDS011;4904;49.152;11.004;2024-01-10T02:20:15;15.30;;;9.90;;
9729;SDS011;4904;49.152;11.004;2024-01-10T02:22:43;15.40;;;9.57;;
9729;SDS011;4904;49.152;11.004;2024-01-10T02:25:11;13.83;;;9.50;;
9729;SDS011;4904;49.152;11.004;2024-01-10T02:27:39;15.70;;;10.17;;
9729;SDS011;4904;49.152;11.004;2024-01-10T02:30:06;16.10;;;9.23;;
9729;SDS011;4904;49.152;11.004;2024-01-10T02:32:35;19.20;;;10.10;;
9729;SDS011;4904;49.152;11.004;2024-01-10T02:35:02;14.87;;;9.67;;
9729;SDS011;4904;49.152;11.004;2024-01-10T02:37:29;15.40;;;9.60;;
9729;SDS011;4904;49.152;11.004;2024-01-10T02:39:56;14.90;;;10.03;;
9729;SDS011;4904;49.152;11.004;2024-01-10T02:42:24;16.20;;;9.87;;
9729;SDS011;4904;49.152;11.004;2024-01-10T02:44:52;14.13;;;9.53;;
9729;SDS011;4904;49.152;11.004;2024-01-10T02:47:19;16.80;;;9.37;;
9729;SDS011;4904;49.152;11.004;2024-01-10T02:49:45;15.33;;;9.53;;
9729;SDS011;4904;49.152;11.004;2024-01-10T02:52:12;16.67;;;9.80;;
9729;SDS011;4904;49.152;11.004;2024-01-10T02:54:39;14.43;;;9.90;;
9729;SDS011;4904;49.152;11.004;2024-01-10T02:57:06;18.60;;;10.90;;
9729;SDS011;4904;49.152;11.004;2024-01-10T02:59:34;14.37;;;9.57;;
9729;SDS011;4904;49.152;11.004;2024-01-10T03:02:01;16.70;;;9.07;;
9729;SDS011;4904;49.152;11.004;2024-01-10T03:04:28;16.40;;;9.87;;
9729;SDS011;4904;49.152;11.004;2024-01-10T03:06:55;14.97;;;9.33;;
9729;SDS011;4904;49.152;11.004;2024-01-10T03:09:22;18.33;;;10.03;;
9729;SDS011;4904;49.152;11.004;2024-01-10T03:11:49;13.93;;;9.47;;
9729;SDS011;4904;49.152;11.004;2024-01-10T03:14:16;19.13;;;10.23;;
9729;SDS011;4904;49.152;11.004;2024-01-10T03:16:44;15.97;;;9.63;;
9729;SDS011;4904;49.152;11.004;2024-01-10T03:19:11;15.33;;;9.50;;
9729;SDS011;4904;49.152;11.004;2024-01-10T03:21:38;15.63;;;9.43;;
9729;SDS011;4904;49.152;11.004;2024-01-10T03:24:05;15.17;;;9.57;;
9729;SDS011;4904;49.152;11.004;2024-01-10T03:26:33;17.37;;;9.77;;
9729;SDS011;4904;49.152;11.004;2024-01-10T03:29:00;18.10;;;10.30;;
9729;SDS011;4904;49.152;11.004;2024-01-10T03:31:27;18.27;;;10.03;;
9729;SDS011;4904;49.152;11.004;2024-01-10T03:33:56;17.40;;;10.00;;
9729;SDS011;4904;49.152;11.004;2024-01-10T03:36:24;17.87;;;10.20;;
9729;SDS011;4904;49.152;11.004;2024-01-10T03:38:51;17.63;;;9.90;;
9729;SDS011;4904;49.152;11.004;2024-01-10T03:41:18;18.97;;;10.30;;
9729;SDS011;4904;49.152;11.004;2024-01-10T03:43:46;16.77;;;10.30;;
9729;SDS011;4904;49.152;11.004;2024-01-10T03:46:13;16.40;;;9.97;;
9729;SDS011;4904;49.152;11.004;2024-01-10T03:48:41;17.87;;;10.77;;
9729;SDS011;4904;49.152;11.004;2024-01-10T03:51:14;16.30;;;10.17;;
9729;SDS011;4904;49.152;11.004;2024-01-10T03:53:42;17.17;;;10.63;;
9729;SDS011;4904;49.152;11.004;2024-01-10T03:56:09;17.00;;;10.03;;
9729;SDS011;4904;49.152;11.004;2024-01-10T03:58:36;17.37;;;10.47;;
9729;SDS011;4904;49.152;11.004;2024-01-10T04:01:06;18.77;;;10.23;;
9729;SDS011;4904;49.152;11.004;2024-01-10T04:03:33;17.13;;;9.73;;
9729;SDS011;4904;49.152;11.004;2024-01-10T04:06:00;19.37;;;10.77;;
9729;SDS011;4904;49.152;11.004;2024-01-10T04:08:29;16.10;;;10.23;;
9729;SDS011;4904;49.152;11.004;2024-01-10T04:10:55;16.97;;;10.27;;
9729;SDS011;4904;49.152;11.004;2024-01-10T04:13:22;17.33;;;10.17;;
9729;SDS011;4904;49.152;11.004;2024-01-10T04:15:49;17.20;;;10.50;;
9729;SDS011;4904;49.152;11.004;2024-01-10T04:18:16;15.17;;;9.60;;
9729;SDS011;4904;49.152;11.004;2024-01-10T04:20:43;16.03;;;10.23;;
9729;SDS011;4904;49.152;11.004;2024-01-10T04:23:10;15.20;;;9.77;;
9729;SDS011;4904;49.152;11.004;2024-01-10T04:25:39;16.33;;;9.67;;
9729;SDS011;4904;49.152;11.004;2024-01-10T04:28:05;17.87;;;9.70;;
9729;SDS011;4904;49.152;11.004;2024-01-10T04:30:32;14.57;;;9.57;;
9729;SDS011;4904;49.152;11.004;2024-01-10T04:32:59;15.80;;;9.47;;
9729;SDS011;4904;49.152;11.004;2024-01-10T04:35:26;15.40;;;9.87;;
9729;SDS011;4904;49.152;11.004;2024-01-10T04:37:53;15.77;;;8.97;;
9729;SDS011;4904;49.152;11.004;2024-01-10T04:40:20;17.67;;;10.47;;
9729;SDS011;4904;49.152;11.004;2024-01-10T04:42:48;16.17;;;9.70;;
9729;SDS011;4904;49.152;11.004;2024-01-10T04:45:15;15.87;;;10.00;;
9729;SDS011;4904;49.152;11.004;2024-01-10T04:47:42;15.57;;;9.50;;
9729;SDS011;4904;49.152;11.004;2024-01-10T04:50:10;17.00;;;9.40;;
9729;SDS011;4904;49.152;11.004;2024-01-10T04:52:37;18.13;;;9.30;;
9729;SDS011;4904;49.152;11.004;2024-01-10T04:55:04;16.77;;;10.30;;
9729;SDS011;4904;49.152;11.004;2024-01-10T04:57:33;18.47;;;10.07;;
9729;SDS011;4904;49.152;11.004;2024-01-10T05:00:01;16.80;;;10.00;;
9729;SDS011;4904;49.152;11.004;2024-01-10T05:02:29;16.17;;;10.57;;
9729;SDS011;4904;49.152;11.004;2024-01-10T05:04:56;18.77;;;10.83;;
9729;SDS011;4904;49.152;11.004;2024-01-10T05:07:24;17.13;;;10.60;;
9729;SDS011;4904;49.152;11.004;2024-01-10T05:09:51;17.33;;;11.47;;
9729;SDS011;4904;49.152;11.004;2024-01-10T05:12:18;16.77;;;10.87;;
9729;SDS011;4904;49.152;11.004;2024-01-10T05:14:44;16.07;;;10.80;;
9729;SDS011;4904;49.152;11.004;2024-01-10T05:17:13;16.53;;;10.20;;
9729;SDS011;4904;49.152;11.004;2024-01-10T05:19:40;17.93;;;10.37;;
9729;SDS011;4904;49.152;11.004;2024-01-10T05:22:07;18.63;;;10.50;;
9729;SDS011;4904;49.152;11.004;2024-01-10T05:24:34;16.07;;;10.37;;
9729;SDS011;4904;49.152;11.004;2024-01-10T05:27:01;17.97;;;10.70;;
9729;SDS011;4904;49.152;11.004;2024-01-10T05:29:29;17.23;;;10.43;;
9729;SDS011;4904;49.152;11.004;2024-01-10T05:31:55;19.07;;;11.10;;
9729;SDS011;4904;49.152;11.004;2024-01-10T05:34:24;18.73;;;11.93;;
9729;SDS011;4904;49.152;11.004;2024-01-10T05:36:51;18.37;;;12.00;;
9729;SDS011;4904;49.152;11.004;2024-01-10T05:39:18;19.90;;;11.80;;
9729;SDS011;4904;49.152;11.004;2024-01-10T05:41:46;21.00;;;12.83;;
9729;SDS011;4904;49.152;11.004;2024-01-10T05:44:13;22.37;;;13.13;;
9729;SDS011;4904;49.152;11.004;2024-01-10T05:46:40;19.13;;;11.93;;
9729;SDS011;4904;49.152;11.004;2024-01-10T05:49:07;22.83;;;13.73;;
9729;SDS011;4904;49.152;11.004;2024-01-10T05:51:37;24.27;;;13.57;;
9729;SDS011;4904;49.152;11.004;2024-01-10T05:54:03;28.57;;;13.53;;
9729;SDS011;4904;49.152;11.004;2024-01-10T05:56:32;24.37;;;12.37;;
9729;SDS011;4904;49.152;11.004;2024-01-10T05:58:59;24.70;;;12.57;;
9729;SDS011;4904;49.152;11.004;2024-01-10T06:01:26;20.77;;;11.80;;
9729;SDS011;4904;49.152;11.004;2024-01-10T06:03:53;20.20;;;11.67;;
9729;SDS011;4904;49.152;11.004;2024-01-10T06:06:21;19.43;;;10.90;;
9729;SDS011;4904;49.152;11.004;2024-01-10T06:08:49;17.47;;;10.90;;
9729;SDS011;4904;49.152;11.004;2024-01-10T06:11:17;18.37;;;11.17;;
9729;SDS011;4904;49.152;11.004;2024-01-10T06:13:45;20.20;;;10.70;;
9729;SDS011;4904;49.152;11.004;2024-01-10T06:16:12;18.03;;;11.07;;
9729;SDS011;4904;49.152;11.004;2024-01-10T06:18:39;19.30;;;11.03;;
9729;SDS011;4904;49.152;11.004;2024-01-10T06:21:06;17.67;;;10.97;;
9729;SDS011;4904;49.152;11.004;2024-01-10T06:23:34;18.23;;;10.80;;
9729;SDS011;4904;49.152;11.004;2024-01-10T06:26:02;18.70;;;11.10;;
9729;SDS011;4904;49.152;11.004;2024-01-10T06:28:30;19.87;;;11.63;;
9729;SDS011;4904;49.152;11.004;2024-01-10T06:30:56;21.80;;;11.60;;
9729;SDS011;4904;49.152;11.004;2024-01-10T06:33:23;18.70;;;11.47;;
9729;SDS011;4904;49.152;11.004;2024-01-10T06:35:50;18.23;;;11.13;;
9729;SDS011;4904;49.152;11.004;2024-01-10T06:38:18;20.90;;;10.87;;
9729;SDS011;4904;49.152;11.004;2024-01-10T06:40:47;19.80;;;11.60;;
9729;SDS011;4904;49.152;11.004;2024-01-10T06:43:17;20.20;;;12.53;;
9729;SDS011;4904;49.152;11.004;2024-01-10T06:45:43;22.47;;;12.37;;
9729;SDS011;4904;49.152;11.004;2024-01-10T06:48:11;19.30;;;12.33;;
9729;SDS011;4904;49.152;11.004;2024-01-10T06:50:38;20.23;;;11.60;;
9729;SDS011;4904;49.152;11.004;2024-01-10T06:53:05;17.90;;;11.43;;
9729;SDS011;4904;49.152;11.004;2024-01-10T06:55:32;20.67;;;11.67;;
9729;SDS011;4904;49.152;11.004;2024-01-10T06:57:59;20.33;;;12.77;;
9729;SDS011;4904;49.152;11.004;2024-01-10T07:00:27;22.60;;;13.83;;
9729;SDS011;4904;49.152;11.004;2024-01-10T07:02:54;25.90;;;14.80;;
9729;SDS011;4904;49.152;11.004;2024-01-10T07:05:21;28.37;;;13.93;;
9729;SDS011;4904;49.152;11.004;2024-01-10T07:07:48;21.73;;;13.27;;
9729;SDS011;4904;49.152;11.004;2024-01-10T07:10:15;27.53;;;15.00;;
9729;SDS011;4904;49.152;11.004;2024-01-10T07:12:42;21.97;;;13.23;;
9729;SDS011;4904;49.152;11.004;2024-01-10T07:15:09;20.27;;;13.67;;
9729;SDS011;4904;49.152;11.004;2024-01-10T07:17:38;22.90;;;14.87;;
9729;SDS011;4904;49.152;11.004;2024-01-10T07:20:06;25.80;;;14.90;;
9729;SDS011;4904;49.152;11.004;2024-01-10T07:22:36;24.27;;;14.07;;
9729;SDS011;4904;49.152;11.004;2024-01-10T07:25:04;26.83;;;15.90;;
9729;SDS011;4904;49.152;11.004;2024-01-10T07:27:31;23.67;;;13.30;;
9729;SDS011;4904;49.152;11.004;2024-01-10T07:29:58;21.00;;;12.53;;
9729;SDS011;4904;49.152;11.004;2024-01-10T07:32:25;19.27;;;11.57;;
9729;SDS011;4904;49.152;11.004;2024-01-10T07:34:53;19.67;;;11.03;;
9729;SDS011;4904;49.152;11.004;2024-01-10T07:37:20;18.13;;;11.33;;
9729;SDS011;4904;49.152;11.004;2024-01-10T07:39:48;20.77;;;13.40;;
9729;SDS011;4904;49.152;11.004;2024-01-10T07:42:15;26.17;;;15.07;;
9729;SDS011;4904;49.152;11.004;2024-01-10T07:44:43;22.40;;;14.27;;
9729;SDS011;4904;49.152;11.004;2024-01-10T07:47:10;26.10;;;14.93;;
9729;SDS011;4904;49.152;11.004;2024-01-10T07:49:37;21.73;;;13.47;;
9729;SDS011;4904;49.152;11.004;2024-01-10T07:52:05;22.70;;;13.03;;
9729;SDS011;4904;49.152;11.004;2024-01-10T07:54:32;20.27;;;11.90;;
9729;SDS011;4904;49.152;11.004;2024-01-10T07:56:59;18.73;;;11.53;;
9729;SDS011;4904;49.152;11.004;2024-01-10T07:59:25;19.60;;;12.27;;
9729;SDS011;4904;49.152;11.004;2024-01-10T08:01:55;21.80;;;13.10;;
9729;SDS011;4904;49.152;11.004;2024-01-10T08:04:23;26.03;;;15.30;;
9729;SDS011;4904;49.152;11.004;2024-01-10T08:06:51;22.17;;;14.00;;
9729;SDS011;4904;49.152;11.004;2024-01-10T08:09:19;24.60;;;15.30;;
9729;SDS011;4904;49.152;11.004;2024-01-10T08:11:46;23.73;;;14.67;;
9729;SDS011;4904;49.152;11.004;2024-01-10T08:14:14;25.10;;;13.90;;
9729;SDS011;4904;49.152;11.004;2024-01-10T08:16:41;25.37;;;14.30;;
9729;SDS011;4904;49.152;11.004;2024-01-10T08:19:09;23.30;;;14.50;;
9729;SDS011;4904;49.152;11.004;2024-01-10T08:21:37;24.17;;;14.07;;
9729;SDS011;4904;49.152;11.004;2024-01-10T08:24:04;25.13;;;15.50;;
9729;SDS011;4904;49.152;11.004;2024-01-10T08:26:34;22.87;;;14.37;;
9729;SDS011;4904;49.152;11.004;2024-01-10T08:29:02;22.80;;;14.73;;
9729;SDS011;4904;49.152;11.004;2024-01-10T08:31:29;23.53;;;13.47;;
9729;SDS011;4904;49.152;11.004;2024-01-10T08:33:56;20.93;;;12.83;;
9729;SDS011;4904;49.152;11.004;2024-01-10T08:36:23;21.43;;;13.47;;
9729;SDS011;4904;49.152;11.004;2024-01-10T08:38:50;26.77;;;12.83;;
9729;SDS011;4904;49.152;11.004;2024-01-10T08:41:17;22.07;;;13.37;;
9729;SDS011;4904;49.152;11.004;2024-01-10T08:43:46;22.73;;;13.57;;
9729;SDS011;4904;49.152;11.004;2024-01-10T08:46:12;22.60;;;13.70;;
9729;SDS011;4904;49.152;11.004;2024-01-10T08:48:39;29.30;;;17.43;;
9729;SDS011;4904;49.152;11.004;2024-01-10T08:51:09;30.60;;;16.93;;
9729;SDS011;4904;49.152;11.004;2024-01-10T08:53:36;28.27;;;14.80;;
9729;SDS011;4904;49.152;11.004;2024-01-10T08:56:03;22.77;;;13.90;;
9729;SDS011;4904;49.152;11.004;2024-01-10T08:58:30;20.67;;;13.23;;
9729;SDS011;4904;49.152;11.004;2024-01-10T09:00:58;21.73;;;13.13;;
9729;SDS011;4904;49.152;11.004;2024-01-10T09:03:25;20.90;;;12.77;;
9729;SDS011;4904;49.152;11.004;2024-01-10T09:05:52;18.70;;;12.57;;
9729;SDS011;4904;49.152;11.004;2024-01-10T09:08:19;20.03;;;12.90;;
9729;SDS011;4904;49.152;11.004;2024-01-10T09:10:46;23.40;;;12.50;;
9729;SDS011;4904;49.152;11.004;2024-01-10T09:13:14;19.83;;;12.73;;
9729;SDS011;4904;49.152;11.004;2024-01-10T09:15:42;23.90;;;13.33;;
9729;SDS011;4904;49.152;11.004;2024-01-10T09:18:12;21.23;;;12.73;;
9729;SDS011;4904;49.152;11.004;2024-01-10T09:20:39;21.90;;;12.87;;
9729;SDS011;4904;49.152;11.004;2024-01-10T09:23:06;22.40;;;14.20;;
9729;SDS011;4904;49.152;11.004;2024-01-10T09:25:33;20.17;;;12.80;;
9729;SDS011;4904;49.152;11.004;2024-01-10T09:28:00;23.47;;;13.40;;
9729;SDS011;4904;49.152;11.004;2024-01-10T09:30:27;19.87;;;12.87;;
9729;SDS011;4904;49.152;11.004;2024-01-10T09:32:54;21.07;;;12.83;;
9729;SDS011;4904;49.152;11.004;2024-01-10T09:35:22;20.80;;;12.60;;
9729;SDS011;4904;49.152;11.004;2024-01-10T09:37:50;20.73;;;12.60;;
9729;SDS011;4904;49.152;11.004;2024-01-10T09:40:19;23.00;;;14.10;;
9729;SDS011;4904;49.152;11.004;2024-01-10T09:42:47;23.73;;;14.17;;
9729;SDS011;4904;49.152;11.004;2024-01-10T09:45:17;22.60;;;13.90;;
9729;SDS011;4904;49.152;11.004;2024-01-10T09:47:48;19.40;;;12.53;;
9729;SDS011;4904;49.152;11.004;2024-01-10T09:50:18;22.93;;;12.77;;
9729;SDS011;4904;49.152;11.004;2024-01-10T09:52:48;20.87;;;13.13;;
9729;SDS011;4904;49.152;11.004;2024-01-10T09:55:17;19.27;;;12.70;;
9729;SDS011;4904;49.152;11.004;2024-01-10T09:57:47;19.83;;;12.77;;
9729;SDS011;4904;49.152;11.004;2024-01-10T10:00:14;20.67;;;12.63;;
9729;SDS011;4904;49.152;11.004;2024-01-10T10:02:42;20.53;;;12.83;;
9729;SDS011;4904;49.152;11.004;2024-01-10T10:05:13;24.80;;;12.47;;
9729;SDS011;4904;49.152;11.004;2024-01-10T10:07:44;18.80;;;11.90;;
9729;SDS011;4904;49.152;11.004;2024-01-10T10:10:14;20.77;;;12.53;;
9729;SDS011;4904;49.152;11.004;2024-01-10T10:12:42;19.50;;;12.23;;
9729;SDS011;4904;49.152;11.004;2024-01-10T10:15:13;18.93;;;12.33;;
9729;SDS011;4904;49.152;11.004;2024-01-10T10:17:42;19.63;;;12.33;;
9729;SDS011;4904;49.152;11.004;2024-01-10T10:20:14;21.53;;;13.57;;
9729;SDS011;4904;49.152;11.004;2024-01-10T10:23:00;22.80;;;12.77;;
9729;SDS011;4904;49.152;11.004;2024-01-10T10:25:28;18.10;;;11.73;;
9729;SDS011;4904;49.152;11.004;2024-01-10T10:27:57;19.17;;;11.57;;
9729;SDS011;4904;49.152;11.004;2024-01-10T10:30:25;21.07;;;12.93;;
9729;SDS011;4904;49.152;11.004;2024-01-10T10:32:52;19.13;;;12.93;;
9729;SDS011;4904;49.152;11.004;2024-01-10T10:35:19;17.30;;;11.70;;
9729;SDS011;4904;49.152;11.004;2024-01-10T10:37:47;20.07;;;12.50;;
9729;SDS011;4904;49.152;11.004;2024-01-10T10:40:16;19.23;;;11.90;;
9729;SDS011;4904;49.152;11.004;2024-01-10T10:42:44;19.23;;;11.50;;
9729;SDS011;4904;49.152;11.004;2024-01-10T10:45:14;17.87;;;11.83;;
9729;SDS011;4904;49.152;11.004;2024-01-10T10:47:43;17.77;;;11.00;;
9729;SDS011;4904;49.152;11.004;2024-01-10T10:50:12;17.87;;;11.17;;
9729;SDS011;4904;49.152;11.004;2024-01-10T10:52:41;16.47;;;10.73;;
9729;SDS011;4904;49.152;11.004;2024-01-10T10:55:13;18.47;;;11.00;;
9729;SDS011;4904;49.152;11.004;2024-01-10T10:57:44;15.67;;;10.80;;
9729;SDS011;4904;49.152;11.004;2024-01-10T11:00:12;19.87;;;11.67;;
9729;SDS011;4904;49.152;11.004;2024-01-10T11:02:41;24.10;;;13.77;;
9729;SDS011;4904;49.152;11.004;2024-01-10T11:05:09;17.90;;;11.43;;
9729;SDS011;4904;49.152;11.004;2024-01-10T11:07:36;17.50;;;10.63;;
9729;SDS011;4904;49.152;11.004;2024-01-10T11:10:04;20.73;;;12.63;;
9729;SDS011;4904;49.152;11.004;2024-01-10T11:12:42;19.03;;;12.07;;
9729;SDS011;4904;49.152;11.004;2024-01-10T11:15:34;17.33;;;11.63;;
9729;SDS011;4904;49.152;11.004;2024-01-10T11:18:28;17.37;;;10.90;;
9729;SDS011;4904;49.152;11.004;2024-01-10T11:21:16;17.00;;;11.80;;
9729;SDS011;4904;49.152;11.004;2024-01-10T11:23:50;17.70;;;11.53;;
9729;SDS011;4904;49.152;11.004;2024-01-10T11:26:20;17.33;;;11.50;;
9729;SDS011;4904;49.152;11.004;2024-01-10T11:28:49;21.03;;;11.83;;
9729;SDS011;4904;49.152;11.004;2024-01-10T11:31:18;18.70;;;11.57;;
9729;SDS011;4904;49.152;11.004;2024-01-10T11:33:54;16.27;;;11.50;;
9729;SDS011;4904;49.152;11.004;2024-01-10T11:36:22;18.57;;;12.07;;
9729;SDS011;4904;49.152;11.004;2024-01-10T11:38:53;19.70;;;12.40;;
9729;SDS011;4904;49.152;11.004;2024-01-10T11:41:24;19.10;;;11.53;;
9729;SDS011;4904;49.152;11.004;2024-01-10T11:47:07;17.70;;;11.43;;
9729;SDS011;4904;49.152;11.004;2024-01-10T11:49:34;19.40;;;12.40;;
9729;SDS011;4904;49.152;11.004;2024-01-10T11:52:02;16.37;;;11.60;;
9729;SDS011;4904;49.152;11.004;2024-01-10T11:54:35;16.67;;;11.23;;
9729;SDS011;4904;49.152;11.004;2024-01-10T11:57:02;17.10;;;11.40;;
9729;SDS011;4904;49.152;11.004;2024-01-10T11:59:33;16.47;;;11.63;;
9729;SDS011;4904;49.152;11.004;2024-01-10T12:02:01;17.30;;;11.73;;
9729;SDS011;4904;49.152;11.004;2024-01-10T12:04:30;16.60;;;11.33;;
9729;SDS011;4904;49.152;11.004;2024-01-10T12:06:58;21.63;;;14.20;;
9729;SDS011;4904;49.152;11.004;2024-01-10T12:09:25;16.33;;;11.57;;
9729;SDS011;4904;49.152;11.004;2024-01-10T12:11:52;22.70;;;14.73;;
9729;SDS011;4904;49.152;11.004;2024-01-10T12:14:18;17.63;;;12.17;;
9729;SDS011;4904;49.152;11.004;2024-01-10T12:16:46;16.90;;;11.10;;
9729;SDS011;4904;49.152;11.004;2024-01-10T12:19:13;15.85;;;10.75;;
9729;SDS011;4904;49.152;11.004;2024-01-10T12:21:41;15.27;;;11.03;;
9729;SDS011;4904;49.152;11.004;2024-01-10T12:24:08;16.97;;;11.27;;
9729;SDS011;4904;49.152;11.004;2024-01-10T12:26:35;16.60;;;11.30;;
9729;SDS011;4904;49.152;11.004;2024-01-10T12:29:02;16.67;;;11.02;;
9729;SDS011;4904;49.152;11.004;2024-01-10T12:31:31;16.70;;;11.25;;
9729;SDS011;4904;49.152;11.004;2024-01-10T12:33:58;17.50;;;11.57;;
9729;SDS011;4904;49.152;11.004;2024-01-10T12:36:26;15.05;;;10.32;;
9729;SDS011;4904;49.152;11.004;2024-01-10T12:38:54;14.40;;;10.88;;
9729;SDS011;4904;49.152;11.004;2024-01-10T12:41:21;16.48;;;10.95;;
9729;SDS011;4904;49.152;11.004;2024-01-10T12:43:48;15.03;;;11.00;;
9729;SDS011;4904;49.152;11.004;2024-01-10T12:46:16;15.20;;;10.67;;
9729;SDS011;4904;49.152;11.004;2024-01-10T12:48:43;13.57;;;10.30;;
9729;SDS011;4904;49.152;11.004;2024-01-10T12:51:11;15.90;;;10.90;;
9729;SDS011;4904;49.152;11.004;2024-01-10T12:53:39;14.98;;;10.57;;
9729;SDS011;4904;49.152;11.004;2024-01-10T12:56:09;14.43;;;11.15;;
9729;SDS011;4904;49.152;11.004;2024-01-10T12:58:39;14.40;;;10.63;;
9729;SDS011;4904;49.152;11.004;2024-01-10T13:01:07;16.80;;;10.73;;
9729;SDS011;4904;49.152;11.004;2024-01-10T13:03:34;18.70;;;12.27;;
9729;SDS011;4904;49.152;11.004;2024-01-10T13:06:01;18.58;;;11.68;;
9729;SDS011;4904;49.152;11.004;2024-01-10T13:08:30;15.83;;;11.60;;
9729;SDS011;4904;49.152;11.004;2024-01-10T13:10:57;17.33;;;11.40;;
9729;SDS011;4904;49.152;11.004;2024-01-10T13:13:26;15.13;;;11.15;;
9729;SDS011;4904;49.152;11.004;2024-01-10T13:15:53;17.38;;;11.90;;
9729;SDS011;4904;49.152;11.004;2024-01-10T13:18:20;15.67;;;11.43;;
9729;SDS011;4904;49.152;11.004;2024-01-10T13:20:47;20.73;;;12.57;;
9729;SDS011;4904;49.152;11.004;2024-01-10T13:23:14;16.05;;;11.80;;
9729;SDS011;4904;49.152;11.004;2024-01-10T13:25:43;16.95;;;11.05;;
9729;SDS011;4904;49.152;11.004;2024-01-10T13:28:10;13.93;;;10.88;;
9729;SDS011;4904;49.152;11.004;2024-01-10T13:30:39;16.98;;;11.77;;
9729;SDS011;4904;49.152;11.004;2024-01-10T13:33:07;15.88;;;11.85;;
9729;SDS011;4904;49.152;11.004;2024-01-10T13:35:34;17.00;;;11.38;;
9729;SDS011;4904;49.152;11.004;2024-01-10T13:38:01;15.90;;;11.35;;
9729;SDS011;4904;49.152;11.004;2024-01-10T13:40:28;14.88;;;10.73;;
9729;SDS011;4904;49.152;11.004;2024-01-10T13:42:56;16.85;;;11.23;;
9729;SDS011;4904;49.152;11.004;2024-01-10T13:45:26;13.25;;;10.25;;
9729;SDS011;4904;49.152;11.004;2024-01-10T13:47:54;14.38;;;10.75;;
9729;SDS011;4904;49.152;11.004;2024-01-10T13:50:21;16.42;;;11.50;;
9729;SDS011;4904;49.152;11.004;2024-01-10T13:52:49;16.42;;;10.85;;
9729;SDS011;4904;49.152;11.004;2024-01-10T13:55:16;15.48;;;10.75;;
9729;SDS011;4904;49.152;11.004;2024-01-10T13:57:43;14.27;;;10.10;;
9729;SDS011;4904;49.152;11.004;2024-01-10T14:00:11;15.18;;;11.38;;
9729;SDS011;4904;49.152;11.004;2024-01-10T14:02:39;14.85;;;11.15;;
9729;SDS011;4904;49.152;11.004;2024-01-10T14:05:08;15.18;;;10.68;;
9729;SDS011;4904;49.152;11.004;2024-01-10T14:07:35;15.75;;;11.10;;
9729;SDS011;4904;49.152;11.004;2024-01-10T14:10:02;16.00;;;10.65;;
9729;SDS011;4904;49.152;11.004;2024-01-10T14:12:30;13.65;;;10.18;;
9729;SDS011;4904;49.152;11.004;2024-01-10T14:14:57;15.45;;;11.27;;
9729;SDS011;4904;49.152;11.004;2024-01-10T14:17:25;16.52;;;11.18;;
9729;SDS011;4904;49.152;11.004;2024-01-10T14:19:52;15.60;;;11.40;;
9729;SDS011;4904;49.152;11.004;2024-01-10T14:22:20;19.27;;;10.93;;
9729;SDS011;4904;49.152;11.004;2024-01-10T14:24:48;18.17;;;10.98;;
9729;SDS011;4904;49.152;11.004;2024-01-10T14:27:16;13.32;;;10.05;;
9729;SDS011;4904;49.152;11.004;2024-01-10T14:29:43;14.70;;;9.85;;
9729;SDS011;4904;49.152;11.004;2024-01-10T14:32:10;14.63;;;10.85;;
9729;SDS011;4904;49.152;11.004;2024-01-10T14:34:38;14.07;;;10.18;;
9729;SDS011;4904;49.152;11.004;2024-01-10T14:37:06;14.13;;;10.85;;
9729;SDS011;4904;49.152;11.004;2024-01-10T14:39:34;14.52;;;10.65;;
9729;SDS011;4904;49.152;11.004;2024-01-10T14:42:04;12.85;;;10.00;;